Time;durP1;ratioP1;P1;durP2;ratioP2;P2;SDS_P1;SDS_P2;PMS_P1;PMS_P2;Temp;Humidity;BMP_temperature;BMP_pressure;BME280_temperature;BME280_humidity;BME280_pressure;Samples;Min_cycle;Max_cycle;Signal;HPM_P1;HPM_P2
2023/12/21 00:00:50;;;;;;;12.90;10.90;;;8.60;99.90;;;;;;5044880;28;20508;-81
2023/12/21 00:03:17;;;;;;;12.00;9.63;;;8.60;99.90;;;;;;5044584;28;20525;-80
2023/12/21 00:05:44;;;;;;;13.03;11.47;;;8.60;99.90;;;;;;5045828;28;20526;-80
2023/12/21 00:08:11;;;;;;;15.80;12.07;;;8.60;99.90;;;;;;5046089;28;20453;-80
2023/12/21 00:10:38;;;;;;;11.40;10.20;;;8.60;99.90;;;;;;5045157;28;20534;-80
2023/12/21 00:13:06;;;;;;;15.30;11.73;;;8.70;99.90;;;;;;5045202;28;20558;-80
2023/12/21 00:15:33;;;;;;;16.10;12.03;;;8.60;99.90;;;;;;5044948;28;20518;-81
2023/12/21 00:18:00;;;;;;;17.17;11.63;;;8.70;99.90;;;;;;5044649;28;20452;-80
2023/12/21 00:20:26;;;;;;;13.63;12.17;;;8.70;99.90;;;;;;5043272;28;20566;-81
2023/12/21 00:22:53;;;;;;;15.27;11.60;;;8.70;99.90;;;;;;5045072;28;20573;-80
2023/12/21 00:25:20;;;;;;;18.03;13.27;;;8.70;99.90;;;;;;5043953;28;20520;-81
2023/12/21 00:27:47;;;;;;;15.10;12.40;;;8.70;99.90;;;;;;5044752;28;20463;-80
2023/12/21 00:30:16;;;;;;;15.13;12.27;;;8.80;99.90;;;;;;5037233;28;20538;-80
2023/12/21 00:32:43;;;;;;;17.13;12.40;;;8.70;99.90;;;;;;5046428;28;20461;-80
2023/12/21 00:35:10;;;;;;;15.40;12.90;;;8.80;99.90;;;;;;5045619;28;20553;-81
2023/12/21 00:37:37;;;;;;;14.13;12.47;;;8.80;99.90;;;;;;5045197;28;20522;-80
2023/12/21 00:40:04;;;;;;;12.70;11.40;;;8.80;99.90;;;;;;5045368;28;20484;-80
2023/12/21 00:42:32;;;;;;;14.53;11.70;;;8.80;99.90;;;;;;5045377;28;20449;-80
2023/12/21 00:44:59;;;;;;;17.20;11.77;;;8.80;99.90;;;;;;5044134;28;20455;-81
2023/12/21 00:47:28;;;;;;;14.10;11.43;;;8.80;99.90;;;;;;5044316;28;20523;-80
2023/12/21 00:49:54;;;;;;;14.00;11.50;;;8.80;99.90;;;;;;5043578;28;20522;-80
2023/12/21 00:52:21;;;;;;;15.27;11.20;;;8.80;99.90;;;;;;5042544;28;20518;-80
2023/12/21 00:54:48;;;;;;;12.80;11.50;;;8.90;99.90;;;;;;5045559;28;20494;-80
2023/12/21 00:57:15;;;;;;;20.83;12.40;;;8.90;99.90;;;;;;5045472;28;20478;-81
2023/12/21 00:59:41;;;;;;;12.13;9.83;;;8.90;99.90;;;;;;5043972;28;20505;-80
2023/12/21 01:02:08;;;;;;;10.23;9.13;;;8.90;99.90;;;;;;5042666;28;20470;-82
2023/12/21 01:04:36;;;;;;;13.17;8.97;;;8.90;99.90;;;;;;5043456;28;20522;-80
2023/12/21 01:07:03;;;;;;;11.73;8.63;;;8.90;99.90;;;;;;5044484;28;20478;-81
2023/12/21 01:09:30;;;;;;;14.70;9.37;;;8.90;99.90;;;;;;5043253;28;20565;-81
2023/12/21 01:11:57;;;;;;;11.10;8.93;;;8.90;99.90;;;;;;5041977;28;20469;-80
2023/12/21 01:14:24;;;;;;;13.10;9.20;;;8.90;99.90;;;;;;5041611;28;20489;-82
2023/12/21 01:16:51;;;;;;;13.17;8.83;;;8.90;99.90;;;;;;5041754;28;20518;-81
2023/12/21 01:19:17;;;;;;;8.60;7.70;;;8.90;99.90;;;;;;5040979;28;20561;-81
2023/12/21 01:21:46;;;;;;;8.73;7.40;;;8.90;99.90;;;;;;5040010;28;20465;-81
2023/12/21 01:24:12;;;;;;;10.20;8.70;;;8.90;99.90;;;;;;5040689;28;20455;-80
2023/12/21 01:26:40;;;;;;;8.60;7.80;;;8.90;99.90;;;;;;5039663;28;20485;-80
2023/12/21 01:29:09;;;;;;;10.70;8.07;;;8.90;99.90;;;;;;5039698;28;20831;-80
2023/12/21 01:31:36;;;;;;;9.90;8.00;;;8.90;99.90;;;;;;5040198;28;20458;-81
2023/12/21 01:34:05;;;;;;;7.13;6.43;;;8.90;99.90;;;;;;5038680;28;20548;-81
2023/12/21 01:36:32;;;;;;;8.37;7.53;;;8.90;99.90;;;;;;5039923;28;20467;-81
2023/12/21 01:39:00;;;;;;;9.23;7.47;;;8.90;99.90;;;;;;5038737;28;20459;-81
2023/12/21 01:41:25;;;;;;;9.67;8.67;;;8.90;99.90;;;;;;5038982;28;20449;-81
2023/12/21 01:43:53;;;;;;;10.47;8.20;;;8.90;99.90;;;;;;5038591;28;20551;-81
2023/12/21 01:46:23;;;;;;;8.93;7.20;;;9.00;99.90;;;;;;5039259;28;20220;-80
2023/12/21 01:48:51;;;;;;;10.20;8.80;;;9.00;99.90;;;;;;5036794;28;20470;-80
2023/12/21 01:51:20;;;;;;;10.10;7.60;;;9.00;99.90;;;;;;5037960;28;20470;-81
2023/12/21 01:53:48;;;;;;;8.50;7.60;;;9.00;99.90;;;;;;5036418;28;20514;-80
2023/12/21 01:56:18;;;;;;;8.37;7.50;;;9.00;99.90;;;;;;5036923;28;20470;-81
2023/12/21 01:58:45;;;;;;;8.67;7.77;;;9.00;99.90;;;;;;5036166;28;20486;-80
2023/12/21 02:01:12;;;;;;;11.30;7.10;;;9.00;99.90;;;;;;5044969;28;20490;-80
2023/12/21 02:03:40;;;;;;;9.53;7.60;;;9.00;99.90;;;;;;5046486;28;20469;-79
2023/12/21 02:06:07;;;;;;;8.10;6.90;;;9.10;99.90;;;;;;5047422;28;20479;-81
2023/12/21 02:08:34;;;;;;;10.83;7.50;;;9.00;99.90;;;;;;5043696;28;20548;-81
2023/12/21 02:11:05;;;;;;;10.03;7.63;;;9.00;99.90;;;;;;5043492;28;20514;-79
2023/12/21 02:13:33;;;;;;;10.60;8.23;;;9.00;99.90;;;;;;5041768;28;20520;-78
2023/12/21 02:16:06;;;;;;;8.70;7.07;;;9.00;99.90;;;;;;5041199;28;20529;-80
2023/12/21 02:18:34;;;;;;;11.67;7.87;;;9.00;99.90;;;;;;5041297;28;20464;-80
2023/12/21 02:21:02;;;;;;;9.00;7.60;;;9.00;99.90;;;;;;5041884;28;20758;-78
2023/12/21 02:23:32;;;;;;;9.93;8.30;;;9.00;99.90;;;;;;5040962;28;20557;-79
2023/12/21 02:26:00;;;;;;;10.27;9.27;;;9.00;99.90;;;;;;5039706;28;20511;-80
2023/12/21 02:28:27;;;;;;;8.33;7.43;;;9.00;99.90;;;;;;5041338;28;20515;-79
2023/12/21 02:30:56;;;;;;;10.03;8.30;;;9.10;99.90;;;;;;5040642;28;20501;-79
2023/12/21 02:33:23;;;;;;;9.87;8.87;;;9.00;99.90;;;;;;5039579;28;20456;-79
2023/12/21 02:35:49;;;;;;;9.93;8.90;;;9.10;99.90;;;;;;5041643;28;20570;-80
2023/12/21 02:38:16;;;;;;;10.03;8.57;;;9.10;99.90;;;;;;5041696;28;20549;-78
2023/12/21 02:40:43;;;;;;;10.50;8.20;;;9.10;99.90;;;;;;5039158;28;20492;-79
2023/12/21 02:43:11;;;;;;;9.60;8.60;;;9.10;99.90;;;;;;5039572;28;20551;-79
2023/12/21 02:45:38;;;;;;;10.67;8.07;;;9.10;99.90;;;;;;5040855;28;20494;-80
2023/12/21 02:48:06;;;;;;;10.50;9.40;;;9.00;99.90;;;;;;5038167;28;20905;-80
2023/12/21 02:50:32;;;;;;;11.30;9.67;;;9.10;99.90;;;;;;5040398;28;20518;-79
2023/12/21 02:52:59;;;;;;;11.53;9.40;;;9.10;99.90;;;;;;5041917;28;20543;-81
2023/12/21 02:55:26;;;;;;;12.67;11.13;;;9.10;99.90;;;;;;5042961;28;20498;-80
2023/12/21 02:57:53;;;;;;;12.17;9.10;;;9.10;99.90;;;;;;5042360;28;20476;-80
2023/12/21 03:00:21;;;;;;;13.13;10.20;;;9.10;99.90;;;;;;5041234;28;20551;-80
2023/12/21 03:02:48;;;;;;;10.40;9.40;;;9.00;99.90;;;;;;5041476;28;20546;-79
2023/12/21 03:05:15;;;;;;;12.50;9.63;;;9.10;99.90;;;;;;5041162;28;20470;-80
2023/12/21 03:07:42;;;;;;;9.40;8.50;;;9.10;99.90;;;;;;5042497;28;20479;-80
2023/12/21 03:10:10;;;;;;;9.33;8.33;;;9.10;99.90;;;;;;5043446;28;20511;-79
2023/12/21 03:12:36;;;;;;;9.60;8.57;;;9.10;99.90;;;;;;5042101;28;20548;-80
2023/12/21 03:15:03;;;;;;;8.10;7.30;;;9.10;99.90;;;;;;5043016;28;20493;-80
2023/12/21 03:17:32;;;;;;;8.67;7.80;;;9.10;99.90;;;;;;5045769;28;20565;-80
2023/12/21 03:20:00;;;;;;;9.70;7.97;;;9.00;99.90;;;;;;5038813;28;20525;-80
2023/12/21 03:22:27;;;;;;;10.83;8.20;;;9.10;99.90;;;;;;5045580;28;20460;-80
2023/12/21 03:24:54;;;;;;;9.10;6.30;;;9.00;99.90;;;;;;5045406;28;20533;-80
2023/12/21 03:27:20;;;;;;;10.60;7.00;;;9.10;99.90;;;;;;5044622;28;20471;-79
2023/12/21 03:29:50;;;;;;;7.77;7.00;;;9.10;99.90;;;;;;5044179;28;20553;-80
2023/12/21 03:32:17;;;;;;;6.97;6.27;;;9.10;99.90;;;;;;5044292;28;20472;-79
2023/12/21 03:34:45;;;;;;;9.63;6.47;;;9.00;99.90;;;;;;5044391;28;20498;-81
2023/12/21 03:37:12;;;;;;;6.33;5.60;;;9.10;99.90;;;;;;5044611;28;20515;-79
2023/12/21 03:39:39;;;;;;;5.83;5.13;;;9.10;99.90;;;;;;5045359;28;20546;-80
2023/12/21 03:42:06;;;;;;;5.57;5.03;;;9.00;99.90;;;;;;5044962;28;20526;-80
2023/12/21 03:44:33;;;;;;;5.60;4.43;;;9.00;99.90;;;;;;5044813;28;20522;-79
2023/12/21 03:47:00;;;;;;;6.13;4.13;;;9.00;99.90;;;;;;5043700;28;20461;-81
2023/12/21 03:49:28;;;;;;;5.80;4.53;;;9.00;99.90;;;;;;5043334;28;20501;-80
2023/12/21 03:51:57;;;;;;;6.40;4.90;;;9.00;99.90;;;;;;5043740;28;20465;-80
2023/12/21 03:54:24;;;;;;;5.27;4.77;;;9.00;99.90;;;;;;5028043;28;20469;-80
2023/12/21 03:56:50;;;;;;;7.07;4.63;;;9.00;99.90;;;;;;5045820;28;20461;-80
2023/12/21 03:59:17;;;;;;;6.70;5.27;;;9.00;99.90;;;;;;5044783;28;20486;-79
2023/12/21 04:01:44;;;;;;;6.40;5.27;;;9.00;99.90;;;;;;5041612;28;20470;-80
2023/12/21 04:04:11;;;;;;;8.10;5.40;;;9.00;99.90;;;;;;5044498;28;20494;-81
2023/12/21 04:06:39;;;;;;;6.00;4.57;;;9.00;99.90;;;;;;5045767;28;20883;-81
2023/12/21 04:09:07;;;;;;;6.13;5.50;;;8.90;99.90;;;;;;5048508;28;20534;-79
2023/12/21 04:11:34;;;;;;;7.10;5.43;;;9.00;99.90;;;;;;5048541;28;20474;-81
2023/12/21 04:14:01;;;;;;;7.37;5.47;;;9.00;99.90;;;;;;5048834;28;20530;-81
2023/12/21 04:16:28;;;;;;;6.80;5.33;;;9.00;99.90;;;;;;5047039;28;20480;-81
2023/12/21 04:18:55;;;;;;;9.40;5.43;;;9.00;99.90;;;;;;5044689;28;20575;-80
2023/12/21 04:21:22;;;;;;;9.00;5.23;;;9.00;99.90;;;;;;5044868;28;20458;-80
2023/12/21 04:23:49;;;;;;;8.50;5.63;;;9.00;99.90;;;;;;5043394;28;20504;-81
2023/12/21 04:26:21;;;;;;;5.10;4.30;;;9.00;99.90;;;;;;5045071;28;20456;-80
2023/12/21 04:28:50;;;;;;;6.00;4.00;;;9.00;99.90;;;;;;5042467;28;20697;-80
2023/12/21 04:31:20;;;;;;;5.47;4.33;;;9.00;99.90;;;;;;5043772;28;20491;-81
2023/12/21 04:33:50;;;;;;;4.90;4.40;;;9.10;99.90;;;;;;5044157;28;20459;-80
2023/12/21 04:36:17;;;;;;;7.03;4.40;;;9.10;99.90;;;;;;5045308;28;20578;-81
2023/12/21 04:38:46;;;;;;;6.30;4.30;;;9.00;99.90;;;;;;5045846;28;20481;-81
2023/12/21 04:41:13;;;;;;;4.60;3.63;;;8.90;99.90;;;;;;5045547;28;20477;-81
2023/12/21 04:43:42;;;;;;;4.90;4.03;;;9.00;99.90;;;;;;5045041;28;20515;-81
2023/12/21 04:46:09;;;;;;;5.33;4.83;;;9.00;99.90;;;;;;5045140;28;20978;-81
2023/12/21 04:48:37;;;;;;;4.83;4.20;;;9.00;99.90;;;;;;5043819;28;20479;-80
2023/12/21 04:51:04;;;;;;;6.63;3.80;;;9.00;99.90;;;;;;5042021;28;20501;-80
2023/12/21 04:53:31;;;;;;;5.30;3.53;;;9.00;99.90;;;;;;5039338;28;20550;-80
2023/12/21 04:55:57;;;;;;;4.00;3.50;;;9.00;99.90;;;;;;5035311;28;20571;-81
2023/12/21 04:58:24;;;;;;;5.10;3.33;;;9.00;99.90;;;;;;5042516;28;20463;-80
2023/12/21 05:00:52;;;;;;;5.40;2.80;;;9.10;99.90;;;;;;5041450;28;20479;-80
2023/12/21 05:03:20;;;;;;;3.70;2.83;;;9.00;99.90;;;;;;5039205;28;20521;-80
2023/12/21 05:05:47;;;;;;;3.93;3.07;;;9.10;99.90;;;;;;5039438;28;20462;-79
2023/12/21 05:08:14;;;;;;;3.63;3.20;;;9.10;99.90;;;;;;5041090;28;20454;-80
2023/12/21 05:10:41;;;;;;;3.53;2.70;;;9.10;99.90;;;;;;5040219;28;21073;-80
2023/12/21 05:13:08;;;;;;;4.33;2.50;;;9.10;99.90;;;;;;5040302;28;20460;-82
2023/12/21 05:15:35;;;;;;;4.90;2.70;;;9.10;99.90;;;;;;5031960;28;20548;-80
2023/12/21 05:18:04;;;;;;;3.03;2.30;;;9.10;99.90;;;;;;5038330;28;20460;-81
2023/12/21 05:20:31;;;;;;;3.93;2.47;;;9.10;99.90;;;;;;5039020;28;20479;-80
2023/12/21 05:22:58;;;;;;;2.70;1.83;;;9.10;99.90;;;;;;5038955;28;20457;-81
2023/12/21 05:25:25;;;;;;;2.00;1.57;;;9.10;99.90;;;;;;5038599;28;20951;-80
2023/12/21 05:27:51;;;;;;;4.00;2.30;;;9.10;99.90;;;;;;5038032;28;20479;-80
2023/12/21 05:30:19;;;;;;;2.63;1.90;;;9.10;99.90;;;;;;5037809;28;20503;-80
2023/12/21 05:32:46;;;;;;;2.80;1.80;;;9.10;99.90;;;;;;5037524;28;20542;-80
2023/12/21 05:35:15;;;;;;;4.70;2.60;;;9.10;99.90;;;;;;5038332;28;20505;-80
2023/12/21 05:37:41;;;;;;;5.10;2.30;;;9.10;99.90;;;;;;5037216;28;20447;-81
2023/12/21 05:40:09;;;;;;;2.37;2.03;;;9.10;99.90;;;;;;5045959;28;20527;-80
2023/12/21 05:42:36;;;;;;;4.90;3.30;;;9.10;99.90;;;;;;5045663;28;20485;-79
2023/12/21 05:45:03;;;;;;;2.83;2.23;;;9.10;99.90;;;;;;5045622;28;20530;-80
2023/12/21 05:47:31;;;;;;;7.27;2.83;;;9.10;99.90;;;;;;5044615;28;20523;-80
2023/12/21 05:49:59;;;;;;;2.97;2.07;;;9.10;99.90;;;;;;5036693;28;21046;-80
2023/12/21 05:52:27;;;;;;;3.50;2.13;;;9.10;99.90;;;;;;5044300;28;20463;-79
2023/12/21 05:54:54;;;;;;;4.90;2.03;;;9.20;99.90;;;;;;5044926;28;20591;-80
2023/12/21 05:57:21;;;;;;;3.57;2.10;;;9.20;99.90;;;;;;5045577;28;20487;-80
2023/12/21 05:59:47;;;;;;;6.43;3.20;;;9.20;99.90;;;;;;5044371;28;20561;-79
2023/12/21 06:02:14;;;;;;;7.63;3.30;;;9.10;99.90;;;;;;5044313;28;20488;-81
2023/12/21 06:04:41;;;;;;;5.53;3.70;;;9.20;99.90;;;;;;5045634;28;20455;-80
2023/12/21 06:07:08;;;;;;;5.97;3.87;;;9.10;99.90;;;;;;5046431;28;20471;-81
2023/12/21 06:09:36;;;;;;;5.87;4.30;;;9.10;99.90;;;;;;5046216;28;20489;-80
2023/12/21 06:12:04;;;;;;;8.30;5.43;;;9.10;99.90;;;;;;5044510;28;20490;-79
2023/12/21 06:14:31;;;;;;;6.40;4.63;;;9.20;99.90;;;;;;5042498;28;20467;-80
2023/12/21 06:16:57;;;;;;;9.20;5.20;;;9.20;99.90;;;;;;5040088;28;20863;-79
2023/12/21 06:19:24;;;;;;;8.67;6.17;;;9.20;99.90;;;;;;5040893;28;20470;-80
2023/12/21 06:21:51;;;;;;;10.37;6.03;;;9.20;99.90;;;;;;5044221;28;20463;-80
2023/12/21 06:24:18;;;;;;;7.83;5.70;;;9.20;99.90;;;;;;5036089;28;20479;-79
2023/12/21 06:26:46;;;;;;;7.10;4.80;;;9.20;99.90;;;;;;5044155;28;20487;-80
2023/12/21 06:29:13;;;;;;;9.00;5.10;;;9.30;99.90;;;;;;5041829;28;20912;-77
2023/12/21 06:31:40;;;;;;;6.80;5.13;;;9.20;99.90;;;;;;5041663;28;20525;-78
2023/12/21 06:34:07;;;;;;;6.10;4.20;;;9.20;99.90;;;;;;5042369;28;20556;-78
2023/12/21 06:36:34;;;;;;;7.33;4.73;;;9.20;99.90;;;;;;5044402;28;20963;-77
2023/12/21 06:39:01;;;;;;;7.20;4.63;;;9.20;99.90;;;;;;5041583;28;20479;-78
2023/12/21 06:41:28;;;;;;;7.10;5.33;;;9.20;99.90;;;;;;5042230;28;20450;-77
2023/12/21 06:43:57;;;;;;;7.10;5.17;;;9.20;99.90;;;;;;5042038;28;20554;-78
2023/12/21 06:46:24;;;;;;;6.80;5.17;;;9.20;99.90;;;;;;5039386;28;20451;-79
2023/12/21 06:48:51;;;;;;;8.03;5.33;;;9.30;99.90;;;;;;5042418;28;20488;-77
2023/12/21 06:51:17;;;;;;;11.80;5.77;;;9.30;99.90;;;;;;5038416;28;20557;-80
2023/12/21 06:53:44;;;;;;;9.93;6.10;;;10.00;99.90;;;;;;5043158;28;20458;-80
2023/12/21 06:56:11;;;;;;;10.17;6.90;;;10.20;99.90;;;;;;5044951;28;20494;-79
2023/12/21 06:58:38;;;;;;;15.03;7.50;;;9.30;99.90;;;;;;5042942;28;20943;-79
2023/12/21 07:01:08;;;;;;;13.73;7.40;;;9.30;99.90;;;;;;5038891;28;20465;-79
2023/12/21 07:03:35;;;;;;;14.77;6.80;;;9.30;99.90;;;;;;5044111;28;20459;-79
2023/12/21 07:06:02;;;;;;;10.70;7.57;;;9.30;99.90;;;;;;5044199;28;20529;-82
2023/12/21 07:08:29;;;;;;;12.67;6.83;;;9.30;99.90;;;;;;5041397;28;20534;-78
2023/12/21 07:10:56;;;;;;;9.43;6.73;;;9.30;99.90;;;;;;5042447;28;20502;-80
2023/12/21 07:13:22;;;;;;;8.93;7.63;;;9.30;99.90;;;;;;5044009;28;20487;-79
2023/12/21 07:15:49;;;;;;;14.53;6.83;;;9.30;99.90;;;;;;5048028;28;21082;-79
2023/12/21 07:18:18;;;;;;;12.00;7.90;;;9.30;99.90;;;;;;5047443;28;20459;-80
2023/12/21 07:20:44;;;;;;;12.37;7.27;;;9.30;99.90;;;;;;5046457;28;20507;-81
2023/12/21 07:23:12;;;;;;;10.10;6.90;;;9.30;99.90;;;;;;5047312;28;20978;-80
2023/12/21 07:25:42;;;;;;;14.77;7.73;;;9.30;99.90;;;;;;5047643;28;20505;-80
2023/12/21 07:28:09;;;;;;;10.83;7.77;;;9.30;99.90;;;;;;5049125;28;20475;-79
2023/12/21 07:30:36;;;;;;;10.33;8.07;;;9.40;99.90;;;;;;5047159;28;20566;-79
2023/12/21 07:33:03;;;;;;;9.17;7.60;;;9.40;99.90;;;;;;5052115;28;20460;-79
2023/12/21 07:35:31;;;;;;;15.73;8.27;;;9.40;99.90;;;;;;5053549;28;20486;-80
2023/12/21 07:37:58;;;;;;;11.63;7.10;;;9.40;99.90;;;;;;5050330;28;20448;-80
2023/12/21 07:40:25;;;;;;;11.03;6.07;;;9.30;99.90;;;;;;5050817;28;20459;-79
2023/12/21 07:42:51;;;;;;;10.40;6.00;;;9.40;99.90;;;;;;5046014;28;20484;-79
2023/12/21 07:45:18;;;;;;;7.97;5.47;;;9.30;99.90;;;;;;5046236;28;20535;-78
2023/12/21 07:47:45;;;;;;;8.47;4.80;;;9.40;99.90;;;;;;5047540;28;20519;-81
2023/12/21 07:50:12;;;;;;;9.53;4.83;;;9.40;99.90;;;;;;5047465;28;20538;-80
2023/12/21 07:52:40;;;;;;;8.57;4.77;;;9.40;99.90;;;;;;5046621;28;20474;-77
2023/12/21 07:55:08;;;;;;;7.13;4.73;;;9.40;99.90;;;;;;5045652;28;20562;-79
2023/12/21 07:57:35;;;;;;;5.33;4.47;;;9.40;99.90;;;;;;5042047;28;20538;-78
2023/12/21 08:00:06;;;;;;;8.43;4.90;;;9.40;99.90;;;;;;5043103;28;20855;-79
2023/12/21 08:02:33;;;;;;;9.43;4.10;;;9.40;99.90;;;;;;5040717;28;20470;-78
2023/12/21 08:04:59;;;;;;;8.43;4.20;;;9.40;99.90;;;;;;5041688;28;20503;-79
2023/12/21 08:07:27;;;;;;;8.27;4.60;;;9.40;99.90;;;;;;5041672;28;20546;-79
2023/12/21 08:09:55;;;;;;;7.17;4.30;;;9.40;99.90;;;;;;5040586;28;20491;-78
2023/12/21 08:12:21;;;;;;;6.07;4.13;;;9.40;99.90;;;;;;5041131;28;20456;-78
2023/12/21 08:14:48;;;;;;;8.30;4.93;;;9.40;99.90;;;;;;5040757;28;20453;-78
2023/12/21 08:17:17;;;;;;;6.50;4.90;;;9.40;99.90;;;;;;5041028;28;20494;-78
2023/12/21 08:19:45;;;;;;;8.00;4.90;;;9.40;99.90;;;;;;5043942;28;20483;-78
2023/12/21 08:22:12;;;;;;;11.03;5.20;;;9.40;99.90;;;;;;5041579;28;20962;-78
2023/12/21 08:24:39;;;;;;;11.23;6.23;;;9.40;99.90;;;;;;5043065;28;20547;-80
2023/12/21 08:27:08;;;;;;;8.43;5.60;;;9.50;99.90;;;;;;5043004;28;20472;-80
2023/12/21 08:29:35;;;;;;;7.57;5.73;;;9.50;99.90;;;;;;5040937;28;20510;-77
2023/12/21 08:32:01;;;;;;;6.80;5.30;;;9.50;99.90;;;;;;5041128;28;20471;-79
2023/12/21 08:34:28;;;;;;;7.63;5.27;;;9.50;99.90;;;;;;5041084;28;20463;-79
2023/12/21 08:36:55;;;;;;;7.70;6.30;;;9.50;99.90;;;;;;5039503;28;20495;-79
2023/12/21 08:39:23;;;;;;;14.60;5.70;;;9.50;99.90;;;;;;5039921;28;20486;-79
2023/12/21 08:41:55;;;;;;;7.03;5.30;;;9.60;99.90;;;;;;5039248;28;20468;-79
2023/12/21 08:44:24;;;;;;;6.40;5.30;;;9.50;99.90;;;;;;5039822;28;20462;-79
2023/12/21 08:46:50;;;;;;;6.00;4.50;;;9.60;99.90;;;;;;5038519;28;20452;-79
2023/12/21 08:49:19;;;;;;;5.70;4.63;;;9.60;99.90;;;;;;5037666;28;20479;-79
2023/12/21 08:51:46;;;;;;;10.27;4.80;;;9.60;99.90;;;;;;5039292;28;20836;-80
2023/12/21 08:54:13;;;;;;;4.50;4.10;;;9.60;99.90;;;;;;5037707;28;20453;-79
2023/12/21 08:56:45;;;;;;;6.03;4.30;;;9.60;99.90;;;;;;5038044;28;20497;-81
2023/12/21 08:59:12;;;;;;;8.20;4.83;;;9.60;99.90;;;;;;5037737;28;20546;-78
2023/12/21 09:01:40;;;;;;;7.13;5.00;;;9.60;99.90;;;;;;5037243;28;20459;-80
2023/12/21 09:04:07;;;;;;;10.23;4.07;;;9.60;99.90;;;;;;5037164;28;20449;-79
2023/12/21 09:06:36;;;;;;;4.77;4.33;;;9.60;99.90;;;;;;5038092;28;20965;-79
2023/12/21 09:09:04;;;;;;;4.63;4.07;;;9.60;99.90;;;;;;5037973;28;20514;-79
2023/12/21 09:11:30;;;;;;;7.93;4.40;;;9.60;99.90;;;;;;5042260;28;20455;-79
2023/12/21 09:13:58;;;;;;;9.77;3.77;;;9.60;99.90;;;;;;5047282;28;20463;-78
2023/12/21 09:16:24;;;;;;;5.00;4.07;;;9.60;99.90;;;;;;5046634;28;20486;-78
2023/12/21 09:18:54;;;;;;;4.47;3.00;;;9.60;99.90;;;;;;5038444;28;20904;-79
2023/12/21 09:21:21;;;;;;;5.17;3.83;;;9.60;99.90;;;;;;5033665;28;20455;-79
2023/12/21 09:23:48;;;;;;;9.00;3.07;;;9.70;99.90;;;;;;5039702;28;20456;-79
2023/12/21 09:26:15;;;;;;;4.57;3.20;;;9.70;99.90;;;;;;5039016;28;20927;-77
2023/12/21 09:28:42;;;;;;;2.90;2.50;;;9.70;99.90;;;;;;5031649;28;20535;-80
2023/12/21 09:31:09;;;;;;;56.93;27.77;;;9.70;99.90;;;;;;5038922;28;20478;-79
2023/12/21 09:33:36;;;;;;;26.63;13.90;;;9.70;99.90;;;;;;5032105;28;20475;-78
2023/12/21 09:36:09;;;;;;;3.80;2.87;;;9.70;99.90;;;;;;5039070;28;20492;-79
2023/12/21 09:38:36;;;;;;;4.07;2.53;;;9.70;99.90;;;;;;5038772;28;20459;-78
2023/12/21 09:41:03;;;;;;;4.93;3.43;;;9.70;99.90;;;;;;5039291;28;20521;-79
2023/12/21 09:43:32;;;;;;;5.30;4.13;;;9.70;99.90;;;;;;5040684;28;20538;-79
2023/12/21 09:45:59;;;;;;;7.37;4.37;;;9.70;99.90;;;;;;5039202;28;20483;-79
2023/12/21 09:48:27;;;;;;;3.70;3.27;;;9.70;99.90;;;;;;5039682;28;20452;-79
2023/12/21 09:50:55;;;;;;;4.97;2.67;;;9.70;99.90;;;;;;5037334;28;20577;-78
2023/12/21 09:53:26;;;;;;;5.00;2.37;;;9.70;99.90;;;;;;5040202;28;20463;-80
2023/12/21 09:55:54;;;;;;;3.27;2.23;;;9.80;99.90;;;;;;5040830;28;20544;-79
2023/12/21 09:58:22;;;;;;;9.60;2.43;;;9.80;99.90;;;;;;5041384;28;20456;-78
2023/12/21 10:00:49;;;;;;;3.43;2.43;;;9.80;99.90;;;;;;5042798;28;20480;-78
2023/12/21 10:03:16;;;;;;;3.23;1.90;;;9.90;99.90;;;;;;5042854;28;20466;-79
2023/12/21 10:05:43;;;;;;;3.07;1.80;;;9.90;99.90;;;;;;5043619;28;20462;-78
2023/12/21 10:08:10;;;;;;;3.43;1.70;;;9.90;99.90;;;;;;5041982;28;20519;-79
2023/12/21 10:10:38;;;;;;;2.33;1.30;;;9.90;99.90;;;;;;5041453;28;20471;-79
2023/12/21 10:13:05;;;;;;;3.30;1.40;;;9.90;99.90;;;;;;5039806;28;20563;-79
2023/12/21 10:15:34;;;;;;;3.70;1.50;;;9.90;99.90;;;;;;5038566;28;20483;-78
2023/12/21 10:18:00;;;;;;;1.93;1.70;;;9.90;99.90;;;;;;5030756;28;21010;-79
2023/12/21 10:20:27;;;;;;;2.83;1.40;;;10.00;99.90;;;;;;5040302;28;20471;-79
2023/12/21 10:22:56;;;;;;;2.97;1.30;;;10.00;99.90;;;;;;5035852;28;20473;-79
2023/12/21 10:25:23;;;;;;;2.00;1.33;;;10.00;99.90;;;;;;5043837;28;20456;-80
2023/12/21 10:27:54;;;;;;;2.70;1.50;;;10.00;99.90;;;;;;5042290;28;20492;-79
2023/12/21 10:30:23;;;;;;;2.20;1.47;;;9.90;99.90;;;;;;5042495;28;20479;-79
2023/12/21 10:32:52;;;;;;;1.47;1.07;;;10.00;99.90;;;;;;5043418;28;20455;-79
2023/12/21 10:35:19;;;;;;;2.23;1.00;;;10.00;99.90;;;;;;5041714;28;20467;-80
2023/12/21 10:37:47;;;;;;;1.60;1.13;;;10.00;99.90;;;;;;5038921;28;20503;-78
2023/12/21 10:40:15;;;;;;;1.70;1.00;;;10.10;99.90;;;;;;5039915;28;20483;-80
2023/12/21 10:42:46;;;;;;;3.97;1.87;;;10.10;99.90;;;;;;5041478;28;20481;-79
2023/12/21 10:45:15;;;;;;;2.07;1.10;;;10.10;99.90;;;;;;5042048;28;20530;-79
2023/12/21 10:47:49;;;;;;;1.50;1.13;;;10.20;99.90;;;;;;5039849;28;20527;-78
2023/12/21 10:50:17;;;;;;;1.80;1.23;;;10.10;99.90;;;;;;5037904;28;21270;-78
2023/12/21 10:52:46;;;;;;;3.20;1.20;;;10.10;99.90;;;;;;5040166;28;20462;-77
2023/12/21 10:55:15;;;;;;;3.50;1.50;;;10.20;99.90;;;;;;5037904;28;20968;-79
2023/12/21 10:57:44;;;;;;;2.00;1.50;;;10.20;99.90;;;;;;5038349;28;20936;-79
2023/12/21 11:00:15;;;;;;;3.70;2.00;;;10.20;99.90;;;;;;5036309;28;20483;-77
2023/12/21 11:02:44;;;;;;;2.23;1.20;;;10.20;99.90;;;;;;5038411;28;20482;-77
2023/12/21 11:05:19;;;;;;;2.43;1.50;;;10.20;99.90;;;;;;5040638;28;20463;-77
2023/12/21 11:07:47;;;;;;;2.97;2.07;;;10.20;99.90;;;;;;5041128;28;20869;-78
2023/12/21 11:10:15;;;;;;;2.80;2.50;;;10.20;99.90;;;;;;5043360;28;20486;-79
2023/12/21 11:12:42;;;;;;;3.90;3.03;;;10.20;99.90;;;;;;5042492;28;20455;-78
2023/12/21 11:15:09;;;;;;;4.73;3.10;;;10.20;99.90;;;;;;5041943;28;20462;-79
2023/12/21 11:17:37;;;;;;;5.80;4.03;;;10.20;99.90;;;;;;5042077;28;20522;-79
2023/12/21 11:20:09;;;;;;;5.93;5.00;;;10.20;99.90;;;;;;5045839;28;20479;-79
2023/12/21 11:22:39;;;;;;;5.70;4.10;;;10.30;99.90;;;;;;5043150;28;20460;-79
2023/12/21 11:25:12;;;;;;;4.10;3.70;;;10.30;99.90;;;;;;5044101;28;20479;-80
2023/12/21 11:27:40;;;;;;;4.47;4.07;;;10.30;99.90;;;;;;5043689;28;20746;-79
2023/12/21 11:30:11;;;;;;;7.67;4.40;;;10.30;99.90;;;;;;5043485;28;21023;-79
2023/12/21 11:32:39;;;;;;;5.70;4.60;;;10.30;99.90;;;;;;5042243;28;20450;-79
2023/12/21 11:35:18;;;;;;;6.10;5.40;;;10.40;99.90;;;;;;5043344;28;20466;-80
2023/12/21 11:37:45;;;;;;;8.17;5.83;;;10.30;99.90;;;;;;5042876;28;20590;-79
2023/12/21 11:40:14;;;;;;;6.60;6.00;;;10.30;99.90;;;;;;5043993;28;21027;-79
2023/12/21 11:42:46;;;;;;;11.73;6.20;;;10.30;99.90;;;;;;5044096;28;20521;-79
2023/12/21 11:45:20;;;;;;;6.90;6.30;;;10.40;99.90;;;;;;5044994;28;20463;-78
2023/12/21 11:47:47;;;;;;;7.27;6.27;;;10.40;99.90;;;;;;5043320;28;20519;-80
2023/12/21 11:50:15;;;;;;;7.30;6.50;;;10.40;99.90;;;;;;5043403;28;20547;-79
2023/12/21 11:52:44;;;;;;;9.47;5.60;;;10.40;99.90;;;;;;5043573;28;20456;-78
2023/12/21 11:55:11;;;;;;;7.70;6.10;;;10.40;99.90;;;;;;5042835;28;20538;-79
2023/12/21 11:57:40;;;;;;;6.43;5.83;;;10.40;99.90;;;;;;5042224;28;20495;-78
2023/12/21 12:00:07;;;;;;;11.70;6.00;;;10.50;99.90;;;;;;5042465;28;20987;-79
2023/12/21 12:02:35;;;;;;;9.03;5.73;;;10.50;99.90;;;;;;5039437;28;21020;-79
2023/12/21 12:05:03;;;;;;;7.93;6.40;;;10.60;99.90;;;;;;5043831;28;20465;-79
2023/12/21 12:07:31;;;;;;;7.13;6.30;;;10.60;99.90;;;;;;5043185;28;20482;-80
2023/12/21 12:09:59;;;;;;;22.30;11.53;;;10.60;99.90;;;;;;5042388;28;20887;-79
2023/12/21 12:12:26;;;;;;;4.60;3.90;;;10.60;99.90;;;;;;5042202;28;20457;-78
2023/12/21 12:14:53;;;;;;;6.70;3.77;;;10.70;99.90;;;;;;5041509;28;20523;-78
2023/12/21 12:17:20;;;;;;;8.43;3.93;;;10.70;99.90;;;;;;5039627;28;20567;-77
2023/12/21 12:19:47;;;;;;;7.30;3.10;;;10.70;99.90;;;;;;5037843;28;20550;-77
2023/12/21 12:22:14;;;;;;;7.63;2.53;;;10.70;99.90;;;;;;5043767;28;20557;-79
2023/12/21 12:24:42;;;;;;;4.27;2.23;;;10.70;99.90;;;;;;5044177;28;20467;-79
2023/12/21 12:27:11;;;;;;;5.33;2.70;;;10.80;99.90;;;;;;5049416;28;20547;-80
2023/12/21 12:29:39;;;;;;;3.50;1.90;;;10.80;99.90;;;;;;5043184;28;21071;-80
2023/12/21 12:32:06;;;;;;;4.43;1.60;;;10.80;99.90;;;;;;5044218;28;20535;-80
2023/12/21 12:34:33;;;;;;;8.37;2.80;;;10.80;99.90;;;;;;5043393;28;20495;-79
2023/12/21 12:37:02;;;;;;;5.87;1.50;;;10.60;99.90;;;;;;5041351;28;20494;-80
2023/12/21 12:39:35;;;;;;;5.20;1.80;;;10.70;99.90;;;;;;5042190;28;20578;-80
2023/12/21 12:42:05;;;;;;;3.73;1.90;;;10.80;99.90;;;;;;5041781;28;20456;-84
2023/12/21 12:44:33;;;;;;;7.87;1.77;;;10.80;99.90;;;;;;5041034;28;20450;-80
2023/12/21 12:47:00;;;;;;;3.23;2.03;;;10.80;99.90;;;;;;5041000;28;20475;-80
2023/12/21 12:49:27;;;;;;;2.40;1.60;;;10.70;99.90;;;;;;5047277;28;20496;-78
2023/12/21 12:51:56;;;;;;;4.23;1.50;;;10.70;99.90;;;;;;5051587;28;20471;-77